createdAt,value
2019-05-17T00:00:37.719Z,23.48
2019-05-17T00:03:07.403Z,23.44
2019-05-17T00:05:37.663Z,23.39
2019-05-17T00:08:07.676Z,23.46
2019-05-17T00:10:38.174Z,23.46
2019-05-17T00:13:12.738Z,23.39
2019-05-17T00:15:39.603Z,23.39
2019-05-17T00:18:26.314Z,23.42
2019-05-17T00:20:56.952Z,23.42
2019-05-17T00:23:26.936Z,23.40
2019-05-17T00:25:56.948Z,23.37
2019-05-17T00:28:27.275Z,23.29
2019-05-17T00:30:57.136Z,23.39
2019-05-17T00:33:27.201Z,23.30
2019-05-17T00:35:56.383Z,23.34
2019-05-17T00:38:27.217Z,23.28
2019-05-17T00:40:56.604Z,23.29
2019-05-17T00:43:26.533Z,23.14
2019-05-17T00:45:57.472Z,23.14
2019-05-17T00:48:26.940Z,23.22
2019-05-17T00:51:01.959Z,23.21
2019-05-17T00:53:27.133Z,23.26
2019-05-17T00:55:57.563Z,23.23
2019-05-17T00:58:26.770Z,23.23
2019-05-17T01:00:57.110Z,23.27
2019-05-17T01:03:27.518Z,23.17
2019-05-17T01:07:47.421Z,23.24
2019-05-17T01:10:17.453Z,23.09
2019-05-17T01:12:48.199Z,23.09
2019-05-17T01:15:18.462Z,23.16
2019-05-17T01:17:47.902Z,23.07
2019-05-17T01:20:17.537Z,23.07
2019-05-17T01:22:47.549Z,23.12
2019-05-17T01:25:17.307Z,23.12
2019-05-17T01:27:48.445Z,23.02
2019-05-17T01:30:17.747Z,23.02
2019-05-17T01:32:47.041Z,23.06
2019-05-17T01:35:16.816Z,23.10
2019-05-17T01:37:47.434Z,23.10
2019-05-17T01:40:17.825Z,23.05
2019-05-17T01:42:48.079Z,23.06
2019-05-17T01:45:17.760Z,23.10
2019-05-17T01:47:47.763Z,23.10
2019-05-17T01:50:17.850Z,23.13
2019-05-17T01:52:48.708Z,22.91
2019-05-17T01:55:19.423Z,22.91
2019-05-17T01:57:49.479Z,23.05
2019-05-17T02:00:17.869Z,23.03
2019-05-17T02:02:48.937Z,22.99
2019-05-17T02:05:18.759Z,22.95
2019-05-17T02:07:49.332Z,22.95
2019-05-17T02:10:21.495Z,22.85
2019-05-17T02:12:51.203Z,22.85
2019-05-17T02:15:21.271Z,22.91
2019-05-17T02:17:51.426Z,22.91
2019-05-17T02:20:19.907Z,22.97
2019-05-17T02:22:49.244Z,22.97
2019-05-17T02:25:18.752Z,22.93
2019-05-17T02:27:47.479Z,22.93
2019-05-17T02:30:22.980Z,22.80
2019-05-17T02:32:54.105Z,22.89
2019-05-17T02:35:23.649Z,22.87
2019-05-17T02:37:54.086Z,22.90
2019-05-17T02:40:24.117Z,22.90
2019-05-17T02:42:53.688Z,22.80
2019-05-17T02:45:23.574Z,22.85
2019-05-17T02:47:53.995Z,22.91
2019-05-17T02:53:04.467Z,22.94
2019-05-17T02:55:34.217Z,22.63
2019-05-17T02:58:04.184Z,22.75
2019-05-17T03:00:34.456Z,22.75
2019-05-17T03:03:04.567Z,22.78
2019-05-17T03:05:35.716Z,22.78
2019-05-17T03:08:04.782Z,22.83
2019-05-17T03:10:33.804Z,22.78
2019-05-17T03:13:04.495Z,22.71
2019-05-17T03:15:34.823Z,22.71
2019-05-17T03:18:04.204Z,22.84
2019-05-17T03:20:33.814Z,22.81
2019-05-17T03:23:04.543Z,22.61
2019-05-17T03:25:34.013Z,22.73
2019-05-17T03:28:03.119Z,22.75
2019-05-17T03:30:37.235Z,22.75
2019-05-17T03:33:07.212Z,22.73
2019-05-17T03:35:37.350Z,22.73
2019-05-17T03:39:25.482Z,22.81
2019-05-17T03:44:08.776Z,22.75
2019-05-17T03:48:53.144Z,22.71
2019-05-17T03:51:23.250Z,22.65
2019-05-17T03:53:53.108Z,22.65
2019-05-17T03:56:22.413Z,22.63
2019-05-17T03:58:53.172Z,22.63
2019-05-17T04:01:23.248Z,22.59
2019-05-17T04:03:52.941Z,22.59
2019-05-17T04:06:23.774Z,22.62
2019-05-17T04:08:54.260Z,22.63
2019-05-17T04:11:31.484Z,22.63
2019-05-17T04:13:54.791Z,22.67
2019-05-17T04:16:24.059Z,22.67
2019-05-17T04:18:53.603Z,22.64
2019-05-17T04:21:23.655Z,22.64
2019-05-17T04:23:53.840Z,22.63
2019-05-17T04:26:22.987Z,22.63
2019-05-17T04:28:53.288Z,22.65
2019-05-17T04:31:22.898Z,22.67
2019-05-17T04:33:53.724Z,22.46
2019-05-17T04:36:24.005Z,22.46
2019-05-17T04:38:54.428Z,22.69
2019-05-17T04:41:40.374Z,22.69
2019-05-17T04:43:56.197Z,22.67
2019-05-17T04:46:25.348Z,22.61
2019-05-17T04:48:54.181Z,22.61
2019-05-17T04:51:24.165Z,22.74
2019-05-17T04:53:53.293Z,22.75
2019-05-17T04:56:23.247Z,22.75
2019-05-17T04:58:54.300Z,22.83
2019-05-17T05:01:23.534Z,22.88
2019-05-17T05:03:52.738Z,22.93
2019-05-17T05:06:23.353Z,22.84
2019-05-17T05:08:53.054Z,22.84
2019-05-17T05:11:23.499Z,22.97
2019-05-17T05:13:53.945Z,22.96
2019-05-17T05:16:22.790Z,22.89
2019-05-17T05:18:52.640Z,22.88
2019-05-17T05:21:23.051Z,22.88
2019-05-17T05:23:53.579Z,23.15
2019-05-17T05:26:23.961Z,23.13
2019-05-17T05:28:53.054Z,23.13
2019-05-17T05:31:22.948Z,23.20
2019-05-17T05:33:52.354Z,23.22
2019-05-17T05:36:22.148Z,23.31
2019-05-17T05:38:52.226Z,23.31
2019-05-17T05:41:22.563Z,23.33
2019-05-17T05:43:52.660Z,23.33
2019-05-17T05:46:22.577Z,23.43
2019-05-17T05:48:53.023Z,23.46
2019-05-17T05:53:16.563Z,23.44
2019-05-17T05:55:45.916Z,23.53
2019-05-17T05:58:15.190Z,23.53
2019-05-17T06:00:45.095Z,23.53
2019-05-17T06:03:14.274Z,23.61
2019-05-17T06:05:44.811Z,23.59
2019-05-17T06:08:13.890Z,23.62
2019-05-17T06:10:44.011Z,23.62
2019-05-17T06:13:14.267Z,23.69
2019-05-17T06:15:43.434Z,23.69
2019-05-17T06:18:12.561Z,23.70
2019-05-17T06:20:42.120Z,23.48
2019-05-17T06:23:12.604Z,23.80
2019-05-17T06:25:43.430Z,23.79
2019-05-17T06:28:12.870Z,23.82
2019-05-17T06:30:43.169Z,23.81
2019-05-17T06:34:57.118Z,23.93
2019-05-17T06:37:26.247Z,23.79
2019-05-17T06:39:55.882Z,23.90
2019-05-17T06:42:37.234Z,23.86
2019-05-17T06:44:56.713Z,23.91
2019-05-17T06:47:26.275Z,23.91
2019-05-17T06:49:56.162Z,24.02
2019-05-17T06:52:26.935Z,24.04
2019-05-17T06:54:56.148Z,24.04
2019-05-17T06:57:25.840Z,24.07
2019-05-17T06:59:54.263Z,24.14
2019-05-17T07:02:24.932Z,24.10
2019-05-17T07:04:56.355Z,24.13
2019-05-17T07:09:30.231Z,24.23
2019-05-17T07:12:00.498Z,24.26
2019-05-17T07:14:30.514Z,24.26
2019-05-17T07:16:59.701Z,24.27
2019-05-17T07:19:30.341Z,24.28
2019-05-17T07:22:00.074Z,24.35
2019-05-17T07:24:30.003Z,24.45
2019-05-17T07:26:59.456Z,24.49
2019-05-17T07:29:29.918Z,24.58
2019-05-17T07:32:00.374Z,24.58
2019-05-17T07:34:30.831Z,24.62
2019-05-17T07:37:01.189Z,24.65
2019-05-17T07:39:30.155Z,24.64
2019-05-17T07:41:59.950Z,24.70
2019-05-17T07:44:29.609Z,24.72
2019-05-17T07:47:00.127Z,24.75
2019-05-17T07:49:29.903Z,24.75
2019-05-17T07:52:00.718Z,24.75
2019-05-17T07:54:30.740Z,24.78
2019-05-17T07:57:00.335Z,24.78
2019-05-17T07:59:29.876Z,24.79
2019-05-17T08:01:59.682Z,24.79
2019-05-17T08:07:11.894Z,24.99
2019-05-17T08:09:41.403Z,24.90
2019-05-17T08:12:11.731Z,24.90
2019-05-17T08:14:46.436Z,25.04
2019-05-17T08:17:16.158Z,25.02
2019-05-17T08:19:45.589Z,25.02
2019-05-17T08:25:06.084Z,25.12
2019-05-17T08:27:36.593Z,25.03
2019-05-17T08:30:05.439Z,25.03
2019-05-17T08:32:35.823Z,25.22
2019-05-17T08:35:04.384Z,25.28
2019-05-17T08:37:33.899Z,25.28
2019-05-17T08:40:03.028Z,25.24
2019-05-17T08:42:33.705Z,25.29
2019-05-17T08:45:04.604Z,25.30
2019-05-17T08:47:32.760Z,25.41
2019-05-17T08:50:03.170Z,25.39
2019-05-17T08:52:33.666Z,25.39
2019-05-17T08:55:03.036Z,25.34
2019-05-17T08:57:32.132Z,25.34
2019-05-17T09:00:02.184Z,25.47
2019-05-17T09:02:32.640Z,25.45
2019-05-17T09:05:03.595Z,25.47
2019-05-17T09:07:35.080Z,25.44
2019-05-17T09:10:05.455Z,25.46
2019-05-17T09:12:34.746Z,25.50
2019-05-17T09:15:04.026Z,25.50
2019-05-17T09:17:34.306Z,25.54
2019-05-17T09:20:05.510Z,25.56
2019-05-17T09:22:34.398Z,25.48
2019-05-17T09:25:04.144Z,25.48
2019-05-17T09:27:34.360Z,25.54
2019-05-17T09:30:04.454Z,25.41
2019-05-17T09:32:33.663Z,25.41
2019-05-17T09:35:03.041Z,25.49
2019-05-17T09:37:32.486Z,25.51
2019-05-17T09:40:02.386Z,24.91
2019-05-17T09:42:32.032Z,24.85
2019-05-17T09:45:03.266Z,24.85
2019-05-17T09:47:33.216Z,24.73
2019-05-17T09:52:13.270Z,24.42
2019-05-17T09:54:45.349Z,24.60
2019-05-17T09:57:13.242Z,24.61
2019-05-17T09:59:42.163Z,24.74
2019-05-17T10:02:10.030Z,25.04
2019-05-17T10:04:39.522Z,25.04
2019-05-17T10:07:10.001Z,24.82
2019-05-17T10:09:40.011Z,24.77
2019-05-17T10:12:09.538Z,24.97
2019-05-17T10:14:37.819Z,24.58
2019-05-17T10:17:05.512Z,24.58
2019-05-17T10:19:33.213Z,24.71
2019-05-17T10:22:00.797Z,24.57
2019-05-17T10:24:37.911Z,24.60
2019-05-17T10:26:59.548Z,24.74
2019-05-17T10:29:26.753Z,24.74
2019-05-17T10:31:55.100Z,24.47
2019-05-17T10:34:22.575Z,24.76
2019-05-17T10:36:50.879Z,24.88
2019-05-17T10:39:19.370Z,24.83
2019-05-17T10:41:50.059Z,24.72
2019-05-17T10:44:19.873Z,24.80
2019-05-17T10:46:47.315Z,24.80
2019-05-17T10:49:15.532Z,24.78
2019-05-17T10:51:43.381Z,24.92
2019-05-17T10:54:11.653Z,25.05
2019-05-17T10:56:39.117Z,25.13
2019-05-17T10:59:06.323Z,25.30
2019-05-17T11:01:33.896Z,25.11
2019-05-17T11:04:01.150Z,25.21
2019-05-17T11:06:30.245Z,25.29
2019-05-17T11:08:59.480Z,25.33
2019-05-17T11:11:27.121Z,25.10
2019-05-17T11:13:54.484Z,25.19
2019-05-17T11:16:22.102Z,25.19
2019-05-17T11:18:49.435Z,25.33
2019-05-17T11:21:16.615Z,25.14
2019-05-17T11:24:02.934Z,25.36
2019-05-17T11:26:31.203Z,25.35
2019-05-17T11:28:59.294Z,25.40
2019-05-17T11:31:26.507Z,25.09
2019-05-17T11:33:53.812Z,25.14
2019-05-17T11:36:21.179Z,25.07
2019-05-17T11:38:48.428Z,25.03
2019-05-17T11:41:20.914Z,24.67
2019-05-17T11:43:45.396Z,25.45
2019-05-17T11:46:13.450Z,25.59
2019-05-17T11:48:40.670Z,25.60
2019-05-17T11:51:07.946Z,25.73
2019-05-17T11:53:35.234Z,25.71
2019-05-17T11:56:02.478Z,25.36
2019-05-17T11:58:31.004Z,25.36
2019-05-17T12:00:59.341Z,25.38
2019-05-17T12:03:27.055Z,25.17
2019-05-17T12:05:54.397Z,25.29
2019-05-17T12:10:44.437Z,25.61
2019-05-17T12:13:12.693Z,25.45
2019-05-17T12:15:45.500Z,25.47
2019-05-17T12:18:11.690Z,25.46
2019-05-17T12:20:39.976Z,25.63
2019-05-17T12:23:07.406Z,25.65
2019-05-17T12:25:34.757Z,25.72
2019-05-17T12:28:02.177Z,25.78
2019-05-17T12:30:29.588Z,25.84
2019-05-17T12:32:56.890Z,25.93
2019-05-17T12:35:27.569Z,25.96
2019-05-17T12:37:54.918Z,25.97
2019-05-17T12:40:22.692Z,26.06
2019-05-17T12:42:51.497Z,26.04
2019-05-17T12:45:18.918Z,25.48
2019-05-17T12:47:46.104Z,26.14
2019-05-17T12:50:13.743Z,26.19
2019-05-17T12:52:41.715Z,26.22
2019-05-17T12:55:10.055Z,26.32
2019-05-17T12:57:38.089Z,26.37
2019-05-17T13:00:06.124Z,26.39
2019-05-17T13:02:33.722Z,26.46
2019-05-17T13:05:00.979Z,26.35
2019-05-17T13:07:29.222Z,26.32
2019-05-17T13:09:57.713Z,26.42
2019-05-17T13:12:25.665Z,26.42
2019-05-17T13:14:53.997Z,26.41
2019-05-17T13:17:21.920Z,26.34
2019-05-17T13:19:49.958Z,26.37
2019-05-17T13:22:17.329Z,26.45
2019-05-17T13:24:45.210Z,26.43
2019-05-17T13:27:13.189Z,26.51
2019-05-17T13:29:40.622Z,26.47
2019-05-17T13:32:08.386Z,26.43
2019-05-17T13:34:36.447Z,26.46
2019-05-17T13:37:03.697Z,26.54
2019-05-17T13:39:31.363Z,26.61
2019-05-17T13:41:59.622Z,26.69
2019-05-17T13:44:27.663Z,26.72
2019-05-17T13:46:56.285Z,26.72
2019-05-17T13:49:27.023Z,26.83
2019-05-17T13:51:56.389Z,26.97
2019-05-17T13:54:24.582Z,26.97
2019-05-17T13:56:53.734Z,27.07
2019-05-17T13:59:23.463Z,27.04
2019-05-17T14:01:53.028Z,27.07
2019-05-17T14:04:22.717Z,26.99
2019-05-17T14:06:53.162Z,27.12
2019-05-17T14:09:23.185Z,27.20
2019-05-17T14:11:54.020Z,27.20
2019-05-17T14:14:22.299Z,27.28
2019-05-17T14:16:51.239Z,27.28
2019-05-17T14:19:21.561Z,27.09
2019-05-17T14:21:50.275Z,27.07
2019-05-17T14:24:19.284Z,27.04
2019-05-17T14:26:48.603Z,27.09
2019-05-17T14:29:18.878Z,27.02
2019-05-17T14:32:08.608Z,27.07
2019-05-17T14:34:37.763Z,26.92
2019-05-17T14:37:07.784Z,26.98
2019-05-17T14:39:37.264Z,26.95
2019-05-17T14:42:06.535Z,26.90
2019-05-17T14:44:36.274Z,26.83
2019-05-17T14:47:05.356Z,26.91
2019-05-17T14:49:35.968Z,27.05
2019-05-17T14:52:05.559Z,26.99
2019-05-17T14:54:35.654Z,27.03
2019-05-17T14:58:36.170Z,27.11
2019-05-17T15:01:05.453Z,27.14
2019-05-17T15:03:35.563Z,27.14
2019-05-17T15:06:05.061Z,27.13
2019-05-17T15:08:34.939Z,27.03
2019-05-17T15:11:03.843Z,26.96
2019-05-17T15:13:32.949Z,26.96
2019-05-17T15:16:03.032Z,26.67
2019-05-17T15:18:31.818Z,26.56
2019-05-17T15:21:00.247Z,26.56
2019-05-17T15:23:29.129Z,26.63
2019-05-17T15:25:58.951Z,26.47
2019-05-17T15:28:29.902Z,26.47
2019-05-17T15:30:59.264Z,26.55
2019-05-17T15:33:27.810Z,26.55
2019-05-17T15:35:58.259Z,26.51
2019-05-17T15:38:27.961Z,26.51
2019-05-17T15:40:58.269Z,26.53
2019-05-17T15:43:28.140Z,26.61
2019-05-17T15:45:58.531Z,26.61
2019-05-17T15:48:27.976Z,26.74
2019-05-17T15:50:57.300Z,26.66
2019-05-17T15:53:25.813Z,26.66
2019-05-17T15:55:54.330Z,26.66
2019-05-17T15:58:23.547Z,26.61
2019-05-17T16:00:53.592Z,26.61
2019-05-17T16:03:22.670Z,26.64
2019-05-17T16:05:52.670Z,26.56
2019-05-17T16:08:22.566Z,26.78
2019-05-17T16:10:51.236Z,26.78
2019-05-17T16:13:56.318Z,26.95
2019-05-17T16:16:26.833Z,26.95
2019-05-17T16:18:57.210Z,27.01
2019-05-17T16:21:26.683Z,27.01
2019-05-17T16:23:56.421Z,27.07
2019-05-17T16:26:26.093Z,27.01
2019-05-17T16:28:56.849Z,27.00
2019-05-17T16:31:25.196Z,26.96
2019-05-17T16:33:54.674Z,26.97
2019-05-17T16:36:24.745Z,26.81
2019-05-17T16:38:53.937Z,26.81
2019-05-17T16:44:07.539Z,26.69
2019-05-17T16:46:37.369Z,26.69
2019-05-17T16:49:06.877Z,26.56
2019-05-17T16:51:36.427Z,26.70
2019-05-17T16:54:05.110Z,26.79
2019-05-17T16:56:34.210Z,26.79
2019-05-17T16:59:03.460Z,27.04
2019-05-17T17:01:34.739Z,26.97
2019-05-17T17:04:05.360Z,26.77
2019-05-17T17:06:34.750Z,26.84
2019-05-17T17:09:05.187Z,26.84
2019-05-17T17:11:35.327Z,26.79
2019-05-17T17:14:03.680Z,26.78
2019-05-17T17:16:34.112Z,26.50
2019-05-17T17:19:03.625Z,26.45
2019-05-17T17:21:33.312Z,26.45
2019-05-17T17:24:02.489Z,26.47
2019-05-17T17:26:32.220Z,26.53
2019-05-17T17:29:01.316Z,26.42
2019-05-17T17:31:31.094Z,26.06
2019-05-17T17:33:59.710Z,26.06
2019-05-17T17:36:29.712Z,25.93
2019-05-17T17:38:59.615Z,25.63
2019-05-17T17:41:29.258Z,25.76
2019-05-17T17:43:59.503Z,25.72
2019-05-17T17:46:28.793Z,25.72
2019-05-17T17:48:56.898Z,25.81
2019-05-17T17:51:25.982Z,25.81
2019-05-17T17:53:55.012Z,25.98
2019-05-17T17:56:24.496Z,25.93
2019-05-17T17:58:53.888Z,25.93
2019-05-17T18:01:23.200Z,25.72
2019-05-17T18:03:52.387Z,25.72
2019-05-17T18:06:22.952Z,25.49
2019-05-17T18:08:53.060Z,25.55
2019-05-17T18:11:22.384Z,25.54
2019-05-17T18:13:52.927Z,25.54
2019-05-17T18:16:22.045Z,25.53
2019-05-17T18:18:53.006Z,25.49
2019-05-17T18:21:21.356Z,25.49
2019-05-17T18:23:50.915Z,25.37
2019-05-17T18:26:21.353Z,25.38
2019-05-17T18:28:51.280Z,25.26
2019-05-17T18:31:21.391Z,25.26
2019-05-17T18:33:50.564Z,25.33
2019-05-17T18:36:20.073Z,25.27
2019-05-17T18:38:51.435Z,25.27
2019-05-17T18:41:20.912Z,25.13
2019-05-17T18:43:50.094Z,25.13
2019-05-17T18:46:19.370Z,25.19
2019-05-17T18:48:48.450Z,25.19
2019-05-17T18:51:17.165Z,25.15
2019-05-17T18:53:47.391Z,25.03
2019-05-17T18:56:17.346Z,25.10
2019-05-17T18:58:46.711Z,25.10
2019-05-17T19:01:15.326Z,25.10
2019-05-17T19:03:44.597Z,25.08
2019-05-17T19:06:14.626Z,25.06
2019-05-17T19:08:44.414Z,25.06
2019-05-17T19:11:14.150Z,25.02
2019-05-17T19:13:44.238Z,24.99
2019-05-17T19:16:15.439Z,24.87
2019-05-17T19:18:46.161Z,24.87
2019-05-17T19:21:15.746Z,24.95
2019-05-17T19:23:45.365Z,24.94
2019-05-17T19:26:15.138Z,24.93
2019-05-17T19:28:45.601Z,24.89
2019-05-17T19:31:14.687Z,24.87
2019-05-17T19:33:43.875Z,24.87
2019-05-17T19:36:13.495Z,24.85
2019-05-17T19:38:42.419Z,24.85
2019-05-17T19:41:11.486Z,24.75
2019-05-17T19:43:41.172Z,24.68
2019-05-17T19:47:58.648Z,24.77
2019-05-17T19:50:29.013Z,24.77
2019-05-17T19:52:58.430Z,24.77
2019-05-17T19:55:28.081Z,24.75
2019-05-17T19:57:57.853Z,24.75
2019-05-17T20:00:26.603Z,24.70
2019-05-17T20:02:56.841Z,24.56
2019-05-17T20:05:26.743Z,24.56
2019-05-17T20:07:58.258Z,24.64
2019-05-17T20:10:28.880Z,24.66
2019-05-17T20:12:58.054Z,24.67
2019-05-17T20:15:34.583Z,24.65
2019-05-17T20:19:11.747Z,24.65
2019-05-17T20:21:41.612Z,24.56
2019-05-17T20:24:10.720Z,24.61
2019-05-17T20:26:39.710Z,24.63
2019-05-17T20:29:11.075Z,24.64
2019-05-17T20:31:41.472Z,24.63
2019-05-17T20:34:11.324Z,24.63
2019-05-17T20:36:41.131Z,24.64
2019-05-17T20:39:10.609Z,24.62
2019-05-17T20:41:39.087Z,24.65
2019-05-17T20:44:09.209Z,24.06
2019-05-17T20:46:38.601Z,24.06
2019-05-17T20:51:50.198Z,24.50
2019-05-17T20:54:20.879Z,24.50
2019-05-17T20:56:52.423Z,24.55
2019-05-17T20:59:21.692Z,24.48
2019-05-17T21:01:51.709Z,24.48
2019-05-17T21:04:21.113Z,24.59
2019-05-17T21:06:51.205Z,24.59
2019-05-17T21:09:22.317Z,24.60
2019-05-17T21:11:50.814Z,24.59
2019-05-17T21:14:20.600Z,24.48
2019-05-17T21:16:51.035Z,24.48
2019-05-17T21:19:20.441Z,24.57
2019-05-17T21:21:52.565Z,24.58
2019-05-17T21:24:22.210Z,24.57
2019-05-17T21:26:52.449Z,24.48
2019-05-17T21:29:22.174Z,24.48
2019-05-17T21:31:53.007Z,24.55
2019-05-17T21:34:23.600Z,24.55
2019-05-17T21:36:52.608Z,24.54
2019-05-17T21:39:22.486Z,24.54
2019-05-17T21:41:52.060Z,24.46
2019-05-17T21:44:20.651Z,24.46
2019-05-17T21:47:03.773Z,24.54
2019-05-17T21:49:22.204Z,24.47
2019-05-17T21:51:51.708Z,24.47
2019-05-17T21:54:22.526Z,24.44
2019-05-17T21:56:53.102Z,24.51
2019-05-17T21:59:23.492Z,24.52
2019-05-17T22:01:52.997Z,24.52
2019-05-17T22:04:26.729Z,24.51
2019-05-17T22:06:56.311Z,24.52
2019-05-17T22:09:26.445Z,24.44
2019-05-17T22:11:59.514Z,24.44
2019-05-17T22:14:30.167Z,24.53
2019-05-17T22:17:00.484Z,24.53
2019-05-17T22:19:30.260Z,24.51
2019-05-17T22:22:00.547Z,24.43
2019-05-17T22:25:51.251Z,24.54
2019-05-17T22:28:20.258Z,24.49
2019-05-17T22:30:50.751Z,24.48
2019-05-17T22:33:21.226Z,24.51
2019-05-17T22:35:51.276Z,24.51
2019-05-17T22:42:22.935Z,24.48
2019-05-17T22:49:59.203Z,24.43
2019-05-17T22:52:28.785Z,24.50
2019-05-17T22:54:59.785Z,24.50
2019-05-17T22:57:30.160Z,24.47
2019-05-17T23:00:00.829Z,24.47
2019-05-17T23:02:30.680Z,24.44
2019-05-17T23:05:01.969Z,24.46
2019-05-17T23:07:31.989Z,24.47
2019-05-17T23:10:02.329Z,24.45
2019-05-17T23:12:32.343Z,24.46
2019-05-17T23:15:02.963Z,24.43
2019-05-17T23:17:34.344Z,24.43
2019-05-17T23:20:05.915Z,24.43
2019-05-17T23:22:36.964Z,24.43
2019-05-17T23:25:06.089Z,24.43
2019-05-17T23:27:34.628Z,24.43
2019-05-17T23:30:05.764Z,24.42
2019-05-17T23:32:36.106Z,24.42
2019-05-17T23:35:06.484Z,24.45
2019-05-17T23:37:35.779Z,24.45
2019-05-17T23:40:06.011Z,24.46
2019-05-17T23:42:35.481Z,24.36
2019-05-17T23:45:05.666Z,24.47
2019-05-17T23:47:35.242Z,24.47
2019-05-17T23:50:05.375Z,24.45
2019-05-17T23:52:35.310Z,24.42
2019-05-17T23:55:04.922Z,24.42
2019-05-17T23:57:34.369Z,24.33
